HBNEW CYPY-CYZF
Flight info
| Callsign | HBNEW |
|---|---|
| Flight time | N/A |
| Altitude | 10000 |
| Route | DCT YSM V21 YZF DCT |
| Aircraft | BCS1/M-SBDE2E3GIRWXY/LB1 |
Departure
| Time | 2026-05-04 12:33 |
|---|---|
| Airport | Fort Chipewyan Airport (CYPY) |
Arrival
| Time | N/A |
|---|---|
| Airport | Yellowknife International Airport (CYZF) |
| Time | Latitude | Longitude | Altitude | Speed | Heading |
|---|---|---|---|---|---|
| 2026-05-04 12:18 | 58.76687 | -111.11401 | 739 ft | 0 kts | 235° |
| 2026-05-04 12:28 | 58.76679 | -111.11408 | 738 ft | 6 kts | 175° |
| 2026-05-04 12:28 | 58.76694 | -111.11353 | 740 ft | 9 kts | 32° |
| 2026-05-04 12:28 | 58.76766 | -111.11370 | 741 ft | 14 kts | 320° |
| 2026-05-04 12:28 | 58.76777 | -111.11387 | 741 ft | 0 kts | 319° |
| 2026-05-04 12:29 | 58.76807 | -111.11435 | 741 ft | 13 kts | 319° |
| 2026-05-04 12:30 | 58.76796 | -111.11638 | 738 ft | 25 kts | 231° |
| 2026-05-04 12:30 | 58.76672 | -111.11937 | 732 ft | 27 kts | 231° |
| 2026-05-04 12:30 | 58.76554 | -111.12221 | 724 ft | 27 kts | 231° |
| 2026-05-04 12:30 | 58.76428 | -111.12477 | 716 ft | 26 kts | 240° |
| 2026-05-04 12:31 | 58.76331 | -111.12749 | 711 ft | 21 kts | 269° |
| 2026-05-04 12:31 | 58.76354 | -111.12720 | 714 ft | 11 kts | 85° |
| 2026-05-04 12:31 | 58.76365 | -111.12674 | 715 ft | 0 kts | 51° |
| 2026-05-04 12:32 | 58.76623 | -111.12055 | 729 ft | 94 kts | 51° |
| 2026-05-04 12:32 | 58.77076 | -111.10927 | 892 ft | 119 kts | 48° |
| 2026-05-04 12:33 | 58.77641 | -111.09625 | 1268 ft | 129 kts | 46° |
| 2026-05-04 12:33 | 58.78268 | -111.08299 | 1550 ft | 143 kts | 40° |
| 2026-05-04 12:33 | 58.79190 | -111.07731 | 1824 ft | 146 kts | 354° |
| 2026-05-04 12:33 | 58.80166 | -111.08282 | 2069 ft | 147 kts | 340° |
| 2026-05-04 12:34 | 58.81125 | -111.09006 | 2293 ft | 149 kts | 341° |
| 2026-05-04 12:34 | 58.82097 | -111.09708 | 2511 ft | 149 kts | 341° |
| 2026-05-04 12:34 | 58.83073 | -111.10402 | 2728 ft | 149 kts | 341° |
| 2026-05-04 12:34 | 58.84035 | -111.11080 | 2942 ft | 149 kts | 341° |
| 2026-05-04 12:35 | 58.85011 | -111.11768 | 3154 ft | 149 kts | 341° |
| 2026-05-04 12:35 | 58.85985 | -111.12448 | 3370 ft | 148 kts | 341° |
| 2026-05-04 12:35 | 58.86951 | -111.13128 | 3585 ft | 147 kts | 341° |
| 2026-05-04 12:35 | 58.87900 | -111.13794 | 3793 ft | 146 kts | 341° |
| 2026-05-04 12:36 | 58.88853 | -111.14465 | 4004 ft | 145 kts | 341° |
| 2026-05-04 12:36 | 58.89797 | -111.15129 | 4217 ft | 144 kts | 341° |
| 2026-05-04 12:36 | 58.90731 | -111.15786 | 4432 ft | 142 kts | 341° |
| 2026-05-04 12:36 | 58.91658 | -111.16438 | 4640 ft | 141 kts | 341° |
| 2026-05-04 12:37 | 58.92565 | -111.17078 | 4865 ft | 140 kts | 341° |
| 2026-05-04 12:37 | 58.93475 | -111.17720 | 5074 ft | 139 kts | 341° |
| 2026-05-04 12:37 | 58.94378 | -111.18357 | 5282 ft | 138 kts | 341° |
| 2026-05-04 12:37 | 58.95276 | -111.18991 | 5491 ft | 137 kts | 341° |
| 2026-05-04 12:38 | 58.96162 | -111.19616 | 5702 ft | 136 kts | 342° |
| 2026-05-04 12:38 | 58.97049 | -111.20244 | 5918 ft | 135 kts | 342° |
| 2026-05-04 12:38 | 58.97932 | -111.20868 | 6132 ft | 135 kts | 342° |
| 2026-05-04 12:38 | 58.98811 | -111.21489 | 6351 ft | 134 kts | 342° |
| 2026-05-04 12:39 | 58.99677 | -111.22102 | 6563 ft | 134 kts | 342° |
| 2026-05-04 12:39 | 59.00550 | -111.22721 | 6767 ft | 133 kts | 342° |
| 2026-05-04 12:39 | 59.01420 | -111.23337 | 6971 ft | 133 kts | 342° |
| 2026-05-04 12:39 | 59.02293 | -111.23956 | 7178 ft | 134 kts | 342° |
| 2026-05-04 12:40 | 59.03165 | -111.24574 | 7385 ft | 135 kts | 342° |
| 2026-05-04 12:40 | 59.04048 | -111.25201 | 7594 ft | 135 kts | 342° |
| 2026-05-04 12:40 | 59.04928 | -111.25825 | 7801 ft | 134 kts | 342° |
| 2026-05-04 12:40 | 59.05805 | -111.26448 | 8018 ft | 133 kts | 342° |
| 2026-05-04 12:41 | 59.06661 | -111.27057 | 8281 ft | 129 kts | 342° |
| 2026-05-04 12:41 | 59.07496 | -111.27652 | 8544 ft | 126 kts | 342° |
| 2026-05-04 12:41 | 59.08314 | -111.28234 | 8812 ft | 124 kts | 342° |
| 2026-05-04 12:41 | 59.09118 | -111.28806 | 9071 ft | 122 kts | 342° |
| 2026-05-04 12:42 | 59.09907 | -111.29368 | 9340 ft | 120 kts | 343° |
| 2026-05-04 12:42 | 59.10678 | -111.29918 | 9617 ft | 118 kts | 343° |
| 2026-05-04 12:42 | 59.11436 | -111.30458 | 9878 ft | 116 kts | 343° |
| 2026-05-04 12:42 | 59.12159 | -111.31205 | 10027 ft | 128 kts | 321° |
| 2026-05-04 12:43 | 59.12769 | -111.32582 | 10036 ft | 139 kts | 317° |
| 2026-05-04 12:43 | 59.13414 | -111.34015 | 10032 ft | 143 kts | 321° |
| 2026-05-04 12:43 | 59.14296 | -111.34639 | 10038 ft | 139 kts | 2° |
| 2026-05-04 12:43 | 59.15254 | -111.34292 | 10034 ft | 141 kts | 6° |
| 2026-05-04 12:44 | 59.16237 | -111.34221 | 10033 ft | 141 kts | 355° |
| 2026-05-04 12:44 | 59.17163 | -111.34649 | 10168 ft | 136 kts | 345° |
| 2026-05-04 12:44 | 59.18049 | -111.35216 | 10283 ft | 133 kts | 343° |
| 2026-05-04 12:44 | 59.18911 | -111.35811 | 10404 ft | 130 kts | 343° |
| 2026-05-04 12:45 | 59.19759 | -111.36413 | 10524 ft | 129 kts | 342° |
| 2026-05-04 12:45 | 59.20312 | -111.36807 | 10604 ft | 128 kts | 342° |
| 2026-05-04 12:45 | 59.21146 | -111.37403 | 10728 ft | 127 kts | 342° |
| 2026-05-04 12:45 | 59.21974 | -111.37997 | 10854 ft | 126 kts | 342° |
| 2026-05-04 12:46 | 59.22799 | -111.38591 | 10977 ft | 126 kts | 342° |
| 2026-05-04 12:46 | 59.23620 | -111.39179 | 11104 ft | 125 kts | 342° |
| 2026-05-04 12:46 | 59.24425 | -111.39758 | 11227 ft | 125 kts | 342° |
| 2026-05-04 12:46 | 59.25241 | -111.40345 | 11356 ft | 125 kts | 342° |
| 2026-05-04 12:47 | 59.26056 | -111.40932 | 11484 ft | 124 kts | 342° |
| 2026-05-04 12:47 | 59.26867 | -111.41516 | 11609 ft | 124 kts | 342° |
| 2026-05-04 12:47 | 59.27664 | -111.42089 | 11742 ft | 123 kts | 342° |
| 2026-05-04 12:47 | 59.28468 | -111.42669 | 11866 ft | 123 kts | 342° |
| 2026-05-04 12:48 | 59.29270 | -111.43247 | 11997 ft | 123 kts | 342° |
| 2026-05-04 12:48 | 59.30088 | -111.43836 | 12025 ft | 128 kts | 342° |
| 2026-05-04 12:48 | 59.30930 | -111.44443 | 12034 ft | 133 kts | 342° |
| 2026-05-04 12:48 | 59.31806 | -111.45075 | 12036 ft | 135 kts | 342° |
| 2026-05-04 12:49 | 59.32697 | -111.45720 | 12042 ft | 138 kts | 342° |
| 2026-05-04 12:49 | 59.33600 | -111.46373 | 12040 ft | 139 kts | 342° |
| 2026-05-04 12:49 | 59.34508 | -111.47030 | 12039 ft | 140 kts | 342° |
| 2026-05-04 12:49 | 59.35421 | -111.47691 | 12043 ft | 140 kts | 342° |
| 2026-05-04 12:50 | 59.36339 | -111.48356 | 12041 ft | 140 kts | 342° |
| 2026-05-04 12:50 | 59.37255 | -111.49020 | 12042 ft | 140 kts | 342° |
| 2026-05-04 12:50 | 59.38172 | -111.49684 | 12042 ft | 141 kts | 342° |
| 2026-05-04 12:50 | 59.39070 | -111.50336 | 12041 ft | 141 kts | 342° |
| 2026-05-04 12:51 | 59.39994 | -111.51007 | 12043 ft | 142 kts | 342° |
| 2026-05-04 12:51 | 59.40932 | -111.51686 | 12046 ft | 142 kts | 342° |
| 2026-05-04 12:51 | 59.41849 | -111.52353 | 12044 ft | 142 kts | 342° |
| 2026-05-04 12:51 | 59.42767 | -111.53022 | 12036 ft | 142 kts | 342° |
| 2026-05-04 12:52 | 59.43696 | -111.53698 | 12044 ft | 142 kts | 342° |
| 2026-05-04 12:52 | 59.44628 | -111.54375 | 12042 ft | 143 kts | 342° |
| 2026-05-04 12:52 | 59.45562 | -111.55056 | 12037 ft | 143 kts | 342° |
| 2026-05-04 12:52 | 59.46495 | -111.55737 | 12037 ft | 143 kts | 342° |
| 2026-05-04 12:53 | 59.47426 | -111.56415 | 12046 ft | 143 kts | 342° |
| 2026-05-04 12:53 | 59.48356 | -111.57094 | 12042 ft | 143 kts | 342° |
| 2026-05-04 12:53 | 59.49274 | -111.57764 | 12043 ft | 143 kts | 342° |
| 2026-05-04 12:53 | 59.50196 | -111.58437 | 12043 ft | 143 kts | 342° |
| 2026-05-04 12:54 | 59.51126 | -111.59117 | 12048 ft | 143 kts | 342° |
| 2026-05-04 12:54 | 59.52056 | -111.59798 | 12045 ft | 143 kts | 342° |
| 2026-05-04 12:54 | 59.52987 | -111.60478 | 12045 ft | 143 kts | 342° |
| 2026-05-04 12:54 | 59.53919 | -111.61161 | 12044 ft | 143 kts | 342° |
| 2026-05-04 12:55 | 59.54849 | -111.61843 | 12046 ft | 143 kts | 342° |
| 2026-05-04 12:55 | 59.55780 | -111.62526 | 12045 ft | 143 kts | 342° |
| 2026-05-04 12:55 | 59.56713 | -111.63209 | 12044 ft | 143 kts | 342° |
| 2026-05-04 12:55 | 59.57644 | -111.63893 | 12048 ft | 143 kts | 342° |
| 2026-05-04 12:56 | 59.58565 | -111.64570 | 12049 ft | 143 kts | 342° |
| 2026-05-04 12:56 | 59.59496 | -111.65253 | 12039 ft | 143 kts | 342° |
| 2026-05-04 12:56 | 59.60430 | -111.65939 | 12042 ft | 143 kts | 342° |
| 2026-05-04 12:56 | 59.61361 | -111.66626 | 12041 ft | 143 kts | 342° |
| 2026-05-04 12:57 | 59.62282 | -111.67303 | 12042 ft | 143 kts | 342° |
| 2026-05-04 12:57 | 59.63216 | -111.67991 | 12036 ft | 143 kts | 342° |
| 2026-05-04 12:57 | 59.64150 | -111.68679 | 12036 ft | 143 kts | 342° |
| 2026-05-04 12:57 | 59.65071 | -111.69358 | 12043 ft | 143 kts | 342° |
| 2026-05-04 12:58 | 59.66016 | -111.70056 | 12035 ft | 143 kts | 342° |
| 2026-05-04 12:58 | 59.66936 | -111.70735 | 12046 ft | 143 kts | 342° |
| 2026-05-04 12:58 | 59.67567 | -111.71201 | 12046 ft | 143 kts | 342° |